Latest Coastal Weather Observations for Port Macquarie Airport

IDN60701

Issued at 8:21 pm EDT Saturday 6 February 2016 (issued every 10 minutes, with the page automatically refreshed every 10 minutes)

About coastal observations | Map of coastal stations | Coastal observations for NSW | Marine services | Other Formats
Station Details ID: 060139 Name: PORT MACQUARIE AIRPORT AWS Lat: -31.43 Lon: 152.87 Height: 4.2 m
Data from the previous 72 hours. | See also: Recent months at Port Macquarie Airport
Date/Time
EDT
Temp

°C
Wind Pressure Rain
since 9am
mm
Weather Cloud Vis
km
Sea
Height
m
Swell
Dir
 
Speed
knots
Gust
knots
hPa Trend Height
m
Period
s
Dir
06/08:00pm 20.9 SSW 8 12 1015.7 - 8.2 - Partly cloudy 10 - - - -
06/07:30pm 21.7 SW 7 11 1015.2 - 8.0 - Partly cloudy 10 - - - -
06/07:00pm 21.9 S 8 10 1014.8 - 8.0 - Partly cloudy 10 - - - -
06/06:30pm 22.1 S 10 13 1014.8 - 8.0 - Partly cloudy 10 - - - -
06/06:00pm 21.9 S 11 17 1014.5 - 7.6 Rain Cloudy 10 - - - -
06/05:30pm 23.6 S 10 16 1013.9 - 7.4 - Partly cloudy 10 - - - -
06/05:00pm 22.4 S 10 15 1014.2 - 7.4 - Cloudy 10 - - - -
06/04:30pm 23.4 SSE 10 14 1014.0 - 7.4 - Partly cloudy 10 - - - -
06/04:00pm 23.8 S 10 14 1014.2 - 7.4 - Cloudy 10 - - - -
06/03:30pm 23.4 S 14 18 1014.6 - 7.4 - Cloudy 10 - - - -
06/03:00pm 24.0 SSE 13 19 1014.6 - 7.4 Recent precip. Cloudy 10 - - - -
06/02:30pm 22.9 SSW 8 11 1014.9 - 7.4 - Partly cloudy 10 - - - -
06/02:17pm 21.7 SSW 8 11 1015.0 - 7.4 - Partly cloudy 10 - - - -
06/02:01pm 21.2 S 13 20 1015.1 - 7.2 - Partly cloudy 5 - - - -
06/02:00pm 21.3 S 13 20 1015.0 - 7.2 - Partly cloudy 6 - - - -
06/01:30pm 21.8 SSW 10 15 1015.1 - 6.6 - Partly cloudy 9 - - - -
06/01:00pm 21.1 SSW 11 16 1015.5 - 6.4 - Partly cloudy 10 - - - -
06/12:30pm 22.3 SSW 11 17 1015.6 - 6.2 - Partly cloudy 10 - - - -
06/12:20pm 21.6 SSW 11 14 1015.6 - 6.2 - Partly cloudy 10 - - - -
06/12:19pm 21.5 SSW 11 14 1015.6 - 6.2 - Partly cloudy 10 - - - -
06/12:13pm 21.3 SSW 11 15 1015.7 - 6.2 - Partly cloudy 10 - - - -
06/12:00pm 20.8 SSW 9 13 1015.8 - 6.2 Rain Cloudy 4 - - - -
06/11:51am 20.6 S 11 18 1015.8 - 4.8 - Partly cloudy 3 - - - -
06/11:50am 20.7 S 11 18 1015.8 - 4.8 - Partly cloudy 3 - - - -
06/11:36am 21.2 S 10 15 1015.8 - 1.2 - Partly cloudy 5 - - - -
06/11:30am 21.2 S 11 15 1015.8 - 1.0 - Partly cloudy 6 - - - -
06/11:00am 21.6 SSW 11 17 1015.7 - 0.6 - Partly cloudy 10 - - - -
06/10:30am 21.3 SSW 9 13 1015.7 - 0.6 - Partly cloudy 10 - - - -
06/10:00am 21.2 SSW 7 10 1015.6 - 0.4 - Partly cloudy 9 - - - -
06/09:30am 20.8 SW 5 8 1015.6 - 0.0 - Partly cloudy 10 - - - -
06/09:24am 20.7 SW 7 9 1015.6 - 0.0 - Partly cloudy 10 - - - -
06/09:23am 20.7 SW 7 9 1015.6 - 0.0 - Partly cloudy 10 - - - -
06/09:12am 20.6 SSW 6 9 1015.5 - 0.0 - Partly cloudy 10 - - - -
06/09:00am 20.5 SSW 6 9 1015.6 - 41.0 Rain Cloudy 5 - - - -
06/08:57am 20.6 SSW 7 9 1015.6 - 41.0 - Partly cloudy 5 - - - -
06/08:56am 20.5 SW 7 9 1015.6 - 41.0 - Partly cloudy 5 - - - -
06/08:44am 20.5 SW 9 11 1015.4 - 40.0 - Partly cloudy 10 - - - -
06/08:43am 20.5 SW 9 11 1015.4 - 40.0 - Partly cloudy 10 - - - -
06/08:33am 20.3 SW 7 9 1015.3 - 40.0 - Partly cloudy 10 - - - -
06/08:30am 20.2 SW 6 9 1015.3 - 40.0 - Partly cloudy 10 - - - -
06/08:00am 19.6 WSW 7 9 1015.1 - 36.4 - Partly cloudy 6 - - - -
06/07:30am 19.9 SW 5 7 1014.9 - 28.8 - Partly cloudy 5 - - - -
06/07:11am 19.6 SSW 6 9 1014.7 - 28.2 - Partly cloudy 3 - - - -
06/07:10am 19.6 SSW 6 9 1014.7 - 28.0 - Partly cloudy 4 - - - -
06/07:00am 19.5 W 7 10 1014.4 - 26.4 - Partly cloudy 3 - - - -
06/06:51am 19.7 WSW 8 11 1014.5 - 24.8 - Partly cloudy 5 - - - -
06/06:47am 19.7 WSW 8 11 1014.4 - 24.2 - Partly cloudy 6 - - - -
06/06:30am 19.8 SSW 8 11 1014.3 - 23.6 - Partly cloudy 5 - - - -
06/06:01am 19.7 SW 8 11 1014.0 - 23.6 - Partly cloudy 10 - - - -
06/06:00am 19.7 SW 8 11 1014.0 - 23.6 Recent precip. Mostly cloudy 10 - - - -
06/05:51am 19.8 SW 8 11 1013.9 - 23.6 - Partly cloudy 7 - - - -
06/05:50am 19.8 SW 8 11 1013.8 - 23.6 - Partly cloudy 7 - - - -
06/05:30am 19.7 SW 7 9 1013.9 - 23.4 - Partly cloudy 7 - - - -
06/05:29am 19.7 SW 7 9 1013.8 - 23.4 - Partly cloudy 7 - - - -
06/05:11am 19.8 SW 6 8 1013.8 - 22.6 - Partly cloudy 5 - - - -
06/05:00am 19.9 SW 5 6 1013.7 - 22.2 - Partly cloudy 9 - - - -
06/04:30am 19.9 WSW 7 8 1013.5 - 21.8 - Partly cloudy 10 - - - -
06/04:00am 19.8 SW 6 7 1013.4 - 21.8 - Partly cloudy 10 - - - -
06/03:30am 19.8 WSW 6 8 1013.5 - 21.8 - Partly cloudy 10 - - - -
06/03:00am 20.0 WSW 7 8 1013.7 - 21.8 - Cloudy 10 - - - -
06/02:30am 20.0 WSW 6 8 1013.9 - 21.8 - Partly cloudy 10 - - - -
06/02:00am 20.1 WSW 6 7 1014.1 - 21.8 - Partly cloudy 10 - - - -
06/01:30am 20.4 SW 5 8 1014.1 - 21.8 - Partly cloudy 10 - - - -
06/01:00am 20.6 SW 6 7 1014.6 - 21.8 - Partly cloudy 10 - - - -
06/12:30am 20.9 SW 7 9 1014.9 - 21.8 - Partly cloudy 10 - - - -
06/12:00am 21.7 SSE 7 11 1015.1 - 21.8 - Cloudy 10 - - - -
 
Date/Time
EDT
Temp

°C
Wind Pressure Rain
since 9am
mm
Weather Cloud Vis
km
Sea
Height
m
Swell
Dir
 
Speed
knots
Gust
knots
hPa Trend Height
m
Period
s
Dir
05/11:30pm 21.5 S 7 9 1015.3 - 21.8 - Cloudy 10 - - - -
05/11:00pm 21.4 SSE 8 14 1015.5 - 21.8 - Partly cloudy 10 - - - -
05/10:30pm 20.5 SW 6 7 1015.5 - 21.8 - Partly cloudy 10 - - - -
05/10:00pm 20.5 SW 8 11 1015.6 - 21.8 - Partly cloudy 10 - - - -
05/09:54pm 20.5 SW 9 13 1015.6 - 21.8 - Partly cloudy 8 - - - -
05/09:30pm 20.5 SSW 8 11 1015.3 - 21.4 - Partly cloudy 5 - - - -
05/09:21pm 20.7 SSW 9 13 1015.4 - 21.2 - Partly cloudy 5 - - - -
05/09:16pm 20.7 SSW 10 13 1015.4 - 21.2 - Partly cloudy 7 - - - -
05/09:00pm 20.7 S 9 13 1015.1 - 21.0 Rain Cloudy 5 - - - -
05/08:58pm 20.8 S 9 13 1015.1 - 21.0 - Partly cloudy 5 - - - -
05/08:34pm 20.8 S 9 12 1014.7 - 20.2 - Partly cloudy 10 - - - -
05/08:30pm 20.7 S 10 14 1014.7 - 20.2 - Partly cloudy 9 - - - -
05/08:16pm 20.7 SSW 11 15 1014.5 - 20.0 - Partly cloudy 5 - - - -
05/08:02pm 20.7 SSW 9 17 1014.4 - 19.2 - Partly cloudy 6 - - - -
05/08:00pm 20.8 SSW 8 14 1014.4 - 19.0 - Partly cloudy 7 - - - -
05/07:50pm 20.6 SSW 10 13 1014.3 - 18.8 - Partly cloudy 5 - - - -
05/07:30pm 20.9 S 12 21 1014.2 - 18.2 - Partly cloudy 9 - - - -
05/07:00pm 21.1 S 8 13 1013.8 - 18.0 - Partly cloudy 10 - - - -
05/06:30pm 20.6 S 11 18 1013.4 - 18.0 - Partly cloudy 8 - - - -
05/06:05pm 20.6 S 9 13 1013.1 - 16.8 - Partly cloudy 10 - - - -
05/06:04pm 20.5 S 9 13 1013.0 - 16.8 - Partly cloudy 9 - - - -
05/06:00pm 20.5 S 11 18 1013.1 - 16.6 Rain Cloudy 7 - - - -
05/05:59pm 20.5 S 11 18 1013.1 - 16.6 - Partly cloudy 6 - - - -
05/05:49pm 20.4 SSW 13 19 1013.2 - 16.4 - Partly cloudy 5 - - - -
05/05:40pm 20.3 SSW 12 17 1013.0 - 15.6 - Partly cloudy 10 - - - -
05/05:30pm 20.3 SSW 12 19 1013.1 - 15.6 - Partly cloudy 5 - - - -
05/05:03pm 20.8 SSW 14 22 1013.0 - 13.0 - Partly cloudy 4 - - - -
05/05:02pm 20.8 SSW 14 22 1013.0 - 12.8 - Partly cloudy 5 - - - -
05/05:00pm 20.8 SSW 13 22 1013.0 - 12.6 - Partly cloudy 6 - - - -
05/04:50pm 20.6 SSW 14 19 1013.0 - 12.0 - Partly cloudy 5 - - - -
05/04:42pm 20.7 SSW 12 19 1013.1 - 11.8 - Partly cloudy 8 - - - -
05/04:30pm 21.0 S 12 18 1013.2 - 11.6 - Partly cloudy 5 - - - -
05/04:23pm 21.2 S 12 18 1013.2 - 11.4 - Partly cloudy 5 - - - -
05/04:20pm 21.4 S 10 17 1013.2 - 10.8 - Partly cloudy 9 - - - -
05/04:19pm 21.4 S 10 15 1013.2 - 10.8 - Partly cloudy 9 - - - -
05/04:16pm 21.7 S 10 15 1013.2 - 10.8 - Partly cloudy 10 - - - -
05/04:00pm 21.0 S 13 19 1013.2 - 10.8 - Partly cloudy 5 - - - -
05/03:59pm 21.0 S 13 19 1013.2 - 10.8 - Partly cloudy 5 - - - -
05/03:58pm 21.0 S 13 19 1013.3 - 10.8 - Partly cloudy 5 - - - -
05/03:52pm 21.5 SSW 13 19 1013.3 - 10.0 - Partly cloudy 10 - - - -
05/03:41pm 21.8 SSW 10 16 1013.3 - 10.0 - Partly cloudy 5 - - - -
05/03:30pm 21.9 SW 10 12 1013.2 - 9.6 - Partly cloudy 10 - - - -
05/03:07pm 21.2 SSW 9 14 1013.4 - 9.4 - Partly cloudy 7 - - - -
05/03:05pm 21.6 SSW 8 12 1013.3 - 9.4 - Partly cloudy 9 - - - -
05/03:04pm 21.4 SSW 8 12 1013.3 - 9.2 - Partly cloudy 10 - - - -
05/03:00pm 21.4 SSW 8 12 1013.4 - 9.0 Rain Cloudy 9 - - - -
05/02:56pm 21.5 SSW 9 13 1013.2 - 8.8 - Partly cloudy 5 - - - -
05/02:46pm 21.6 SSW 13 17 1013.4 - 8.0 - Partly cloudy 10 - - - -
05/02:45pm 21.7 SSW 13 17 1013.4 - 8.0 - Partly cloudy 10 - - - -
05/02:30pm 22.5 SW 9 13 1013.3 - 7.6 - Partly cloudy 10 - - - -
05/02:00pm 22.3 SSW 9 15 1013.3 - 7.6 - Partly cloudy 10 - - - -
05/01:54pm 22.2 SSW 7 13 1013.2 - 7.6 - Partly cloudy 10 - - - -
05/01:30pm 21.7 SSW 9 13 1013.3 - 6.6 - Partly cloudy 6 - - - -
05/01:16pm 21.4 SSW 11 16 1013.5 - 5.4 - Partly cloudy 5 - - - -
05/01:03pm 21.9 SSW 11 17 1013.4 - 4.6 - Partly cloudy 7 - - - -
05/01:00pm 21.8 SSW 11 17 1013.4 - 4.6 - Partly cloudy 6 - - - -
05/12:52pm 22.1 SSW 11 16 1013.6 - 4.4 - Partly cloudy 10 - - - -
05/12:47pm 21.8 SW 11 16 1013.7 - 4.4 - Partly cloudy 10 - - - -
05/12:35pm 21.9 SSW 13 19 1013.7 - 4.4 - Partly cloudy 10 - - - -
05/12:34pm 21.8 SSW 13 19 1013.7 - 4.4 - Partly cloudy 10 - - - -
05/12:30pm 21.9 SSW 11 17 1013.8 - 4.4 - Partly cloudy 10 - - - -
05/12:25pm 21.9 SSW 9 16 1013.6 - 4.2 - Partly cloudy 5 - - - -
05/12:16pm 22.3 SSW 11 17 1013.8 - 3.8 - Partly cloudy 5 - - - -
05/12:00pm 23.4 SSW 9 13 1013.5 - 2.6 Recent precip. Mostly cloudy 10 - - - -
05/11:44am 22.1 SW 10 14 1013.7 - 2.6 - Partly cloudy 10 - - - -
05/11:43am 22.2 SSW 10 14 1013.7 - 2.6 - Partly cloudy 10 - - - -
05/11:30am 21.5 SSW 10 15 1013.7 - 2.6 - Partly cloudy 7 - - - -
05/11:00am 21.3 SSW 12 16 1013.6 - 2.0 - Partly cloudy 8 - - - -
05/10:50am 21.5 SSW 11 16 1013.6 - 2.0 - Partly cloudy 10 - - - -
05/10:49am 21.5 SSW 11 17 1013.5 - 2.0 - Partly cloudy 10 - - - -
05/10:39am 21.6 SSW 11 16 1013.5 - 2.0 - Partly cloudy 10 - - - -
05/10:30am 21.9 SSW 10 13 1013.4 - 2.0 - Partly cloudy 10 - - - -
05/10:18am 21.0 SSW 9 13 1013.5 - 2.0 - Partly cloudy 9 - - - -
05/10:00am 20.7 SW 10 15 1013.3 - 1.6 - Partly cloudy 5 - - - -
05/09:30am 20.6 SW 11 16 1013.1 - 0.6 - Partly cloudy 10 - - - -
05/09:00am 20.4 WSW 9 12 1012.7 - 75.2 Recent precip. Cloudy 10 - - - -
05/08:47am 20.1 WSW 9 12 1012.6 - 75.2 - Partly cloudy 8 - - - -
05/08:30am 19.4 SW 8 11 1012.6 - 74.8 - Partly cloudy 5 - - - -
05/08:28am 19.4 SW 8 11 1012.7 - 74.6 - Partly cloudy 5 - - - -
05/08:20am 19.3 SW 8 10 1012.6 - 74.0 - Partly cloudy 10 - - - -
05/08:00am 19.2 SW 9 12 1012.4 - 73.8 - Partly cloudy 5 - - - -
05/07:38am 19.3 WSW 8 11 1012.1 - 73.0 - Partly cloudy 10 - - - -
05/07:30am 19.4 SW 8 13 1012.1 - 73.0 - Partly cloudy 6 - - - -
05/07:00am 19.4 S 4 6 1011.8 - 70.0 - Partly cloudy 6 - - - -
05/06:30am 19.7 SW 4 6 1011.4 - 66.0 - Partly cloudy 3 - - - -
05/06:08am 19.7 SSW 6 9 1011.2 - 62.4 - Partly cloudy 4 - - - -
05/06:07am 19.7 SSW 6 9 1011.1 - 62.2 - Partly cloudy 4 - - - -
05/06:00am 19.8 WSW 7 10 1010.9 - 61.2 Rain Cloudy 2 - - - -
05/05:51am 19.9 SW 9 14 1010.7 - 59.0 - Partly cloudy 3 - - - -
05/05:50am 19.9 SW 9 14 1010.7 - 58.6 - Partly cloudy 3 - - - -
05/05:30am 19.9 SW 9 14 1010.6 - 55.8 - Partly cloudy 4 - - - -
05/05:00am 20.3 S 9 13 1010.4 - 49.4 - Partly cloudy 4 - - - -
05/04:57am 20.5 S 9 13 1010.5 - 49.2 - Partly cloudy 5 - - - -
05/04:30am 20.3 SW 8 11 1010.1 - 48.4 - Partly cloudy 10 - - - -
05/04:19am 20.3 SW 9 14 1010.1 - 48.4 - Partly cloudy 10 - - - -
05/04:18am 20.3 SW 9 14 1010.2 - 48.4 - Partly cloudy 10 - - - -
05/04:12am 20.4 SW 11 14 1010.0 - 48.2 - Partly cloudy 10 - - - -
05/04:11am 20.4 SW 11 14 1010.0 - 48.2 - Partly cloudy 10 - - - -
05/04:10am 20.3 SW 11 14 1010.0 - 48.2 - Partly cloudy 10 - - - -
05/04:00am 20.4 SW 9 13 1010.1 - 48.2 - Partly cloudy 5 - - - -
05/03:57am 20.4 SW 9 13 1010.1 - 48.0 - Partly cloudy 8 - - - -
05/03:30am 20.3 SSW 6 8 1010.2 - 43.8 - Partly cloudy 3 - - - -
05/03:03am 20.5 SW 6 10 1010.4 - 36.4 - Partly cloudy 5 - - - -
05/03:00am 20.5 SW 7 11 1010.3 - 36.2 Rain Cloudy 6 - - - -
05/02:54am 20.4 SW 8 11 1010.3 - 36.2 - Partly cloudy 10 - - - -
05/02:35am 20.6 SW 7 9 1010.4 - 35.8 - Partly cloudy 5 - - - -
05/02:34am 20.6 SW 7 9 1010.5 - 35.6 - Partly cloudy 7 - - - -
05/02:33am 20.6 SW 6 9 1010.4 - 35.2 - Partly cloudy 7 - - - -
05/02:30am 20.6 SW 7 9 1010.4 - 35.2 - Partly cloudy 9 - - - -
05/02:29am 20.6 SW 7 9 1010.4 - 35.0 - Partly cloudy 9 - - - -
05/02:27am 20.5 SW 7 11 1010.4 - 35.0 - Partly cloudy 9 - - - -
05/02:26am 20.6 SSW 7 11 1010.4 - 35.0 - Partly cloudy 8 - - - -
05/02:00am 20.4 S 9 19 1010.7 - 33.6 - Partly cloudy 3 - - - -
05/01:52am 20.5 SSW 13 24 1011.1 - 31.6 - Partly cloudy 2 - - - -
05/01:51am 20.5 S 13 24 1011.0 - 31.4 - Partly cloudy 2 - - - -
05/01:49am 20.5 SSW 12 24 1011.0 - 31.0 - Partly cloudy 3 - - - -
05/01:48am 20.6 SSW 11 24 1011.0 - 30.8 - Partly cloudy 3 - - - -
05/01:30am 20.6 S 12 17 1011.0 - 27.6 - Partly cloudy 4 - - - -
05/01:09am 20.9 S 15 25 1011.1 - 23.0 - Partly cloudy 3 - - - -
05/01:08am 20.9 S 15 25 1011.0 - 22.4 - Partly cloudy 3 - - - -
05/01:00am 20.8 S 15 24 1011.1 - 19.8 - Partly cloudy 2 - - - -
05/12:47am 20.6 SSW 13 20 1011.0 - 15.2 - Partly cloudy 3 - - - -
05/12:46am 20.5 S 13 20 1011.0 - 15.2 - Partly cloudy 3 - - - -
05/12:35am 20.6 SSW 11 18 1011.1 - 12.0 - Partly cloudy 5 - - - -
05/12:30am 20.7 SSW 11 18 1011.0 - 10.8 - Partly cloudy 10 - - - -
05/12:27am 20.7 SSW 11 17 1011.0 - 10.8 - Partly cloudy 10 - - - -
05/12:26am 20.8 SSW 12 17 1011.0 - 10.8 - Partly cloudy 10 - - - -
05/12:25am 20.8 SSW 12 17 1011.0 - 10.8 - Partly cloudy 10 - - - -
05/12:09am 21.1 SSW 12 19 1011.3 - 10.6 - Partly cloudy 5 - - - -
05/12:00am 20.9 SSW 10 15 1011.3 - 9.8 Recent precip. Cloudy 10 - - - -
 
Date/Time
EDT
Temp

°C
Wind Pressure Rain
since 9am
mm
Weather Cloud Vis
km
Sea
Height
m
Swell
Dir
 
Speed
knots
Gust
knots
hPa Trend Height
m
Period
s
Dir
04/11:51pm 20.9 SSW 12 17 1011.3 - 9.8 - Partly cloudy 10 - - - -
04/11:50pm 20.8 SSW 13 20 1011.3 - 9.8 - Partly cloudy 10 - - - -
04/11:34pm 20.8 SW 9 12 1011.1 - 9.8 - Partly cloudy 5 - - - -
04/11:30pm 20.8 SW 8 11 1011.1 - 9.0 - Partly cloudy 10 - - - -
04/11:00pm 20.9 SW 10 15 1011.2 - 8.8 - Partly cloudy 10 - - - -
04/10:59pm 20.9 SW 10 15 1011.2 - 8.8 - Partly cloudy 10 - - - -
04/10:58pm 20.9 SW 10 15 1011.2 - 8.8 - Partly cloudy 10 - - - -
04/10:50pm 20.9 SW 10 16 1011.2 - 8.6 - Partly cloudy 6 - - - -
04/10:49pm 20.9 SSW 10 16 1011.2 - 8.6 - Partly cloudy 6 - - - -
04/10:46pm 20.9 SW 11 16 1011.2 - 8.6 - Partly cloudy 5 - - - -
04/10:34pm 21.0 SW 9 16 1011.1 - 7.6 - Partly cloudy 7 - - - -
04/10:30pm 21.0 SW 8 11 1011.2 - 7.4 - Partly cloudy 9 - - - -
04/10:29pm 21.0 SW 7 11 1011.2 - 7.4 - Partly cloudy 9 - - - -
04/10:28pm 21.0 SW 8 11 1011.2 - 7.4 - Partly cloudy 9 - - - -
04/10:27pm 21.0 SW 8 11 1011.2 - 7.2 - Partly cloudy 9 - - - -
04/10:18pm 21.1 SW 9 12 1011.1 - 7.0 - Partly cloudy 2 - - - -
04/10:16pm 21.1 SW 9 12 1011.1 - 6.8 - Partly cloudy 2 - - - -
04/10:10pm 21.2 SW 9 13 1011.3 - 3.2 - Partly cloudy 5 - - - -
04/10:00pm 21.2 WSW 5 9 1011.1 - 1.2 - Partly cloudy 10 - - - -
04/09:30pm 21.2 WSW 7 10 1010.7 - 1.2 - Partly cloudy 10 - - - -
04/09:00pm 21.4 SW 11 14 1010.5 - 1.0 Recent precip. Mostly cloudy 10 - - - -
04/08:30pm 21.4 WSW 9 12 1010.4 - 1.0 - Partly cloudy 10 - - - -
04/08:00pm 22.5 SW 13 17 1010.1 - 0.6 - Partly cloudy 10 - - - -
04/07:30pm 23.2 SW 13 19 1009.4 - 0.6 - Partly cloudy 10 - - - -
04/07:00pm 23.4 SW 12 17 1008.6 - 0.6 - Partly cloudy 10 - - - -
04/06:30pm 24.0 SSW 13 18 1008.4 - 0.6 - Partly cloudy 10 - - - -
04/06:00pm 24.3 SW 8 11 1008.2 - 0.6 Recent precip. - 10 - - - -
04/05:30pm 22.7 SW 9 13 1008.1 - 0.6 - Partly cloudy 10 - - - -
04/05:00pm 25.3 SSW 10 15 1008.0 - 0.0 - Partly cloudy 10 - - - -
04/04:30pm 26.0 SSW 12 18 1008.1 - 0.0 - Partly cloudy 10 - - - -
04/04:10pm 25.9 SSW 11 16 1008.3 - 0.0 - Partly cloudy 10 - - - -
04/04:00pm 25.7 SSW 11 18 1008.4 - 0.0 - Cloudy 2 - - - -
04/03:51pm 25.5 SW 11 16 1008.5 - 0.0 - Partly cloudy 3 - - - -
04/03:30pm 25.9 SW 17 21 1008.6 - 0.0 - Partly cloudy 10 - - - -
04/03:00pm 26.3 SW 16 25 1008.8 - 0.0 - Partly cloudy 10 - - - -
04/02:50pm 26.2 SSW 16 28 1008.9 - 0.0 - Partly cloudy 10 - - - -
04/02:30pm 26.2 SSW 15 23 1008.8 - 0.0 - Partly cloudy 10 - - - -
04/02:00pm 26.2 SSW 15 22 1009.0 - 0.0 - Partly cloudy 10 - - - -
04/01:30pm 26.0 SSW 16 24 1009.0 - 0.0 - Partly cloudy 10 - - - -
04/01:00pm 27.1 SSW 14 21 1008.7 - 0.0 - Partly cloudy 10 - - - -
04/12:30pm 26.4 S 13 18 1008.9 - 0.0 - Partly cloudy 10 - - - -
04/12:00pm 26.4 S 12 18 1008.9 - 0.0 - Cloudy 10 - - - -
04/11:30am 26.4 SSW 12 17 1009.0 - 0.0 - Partly cloudy 10 - - - -
04/11:00am 26.9 SSW 11 17 1009.0 - 0.0 - Partly cloudy 10 - - - -
04/10:30am 27.0 SSW 12 18 1008.8 - 0.0 - - 10 - - - -
04/10:00am 27.2 SSW 11 15 1008.7 - 0.0 - Partly cloudy 10 - - - -
04/09:30am 26.5 SSW 12 18 1008.5 - 0.0 - Partly cloudy 10 - - - -
04/09:00am 25.1 SSW 11 15 1008.3 - 0.0 - Partly cloudy 10 - - - -
04/08:30am 25.4 SW 10 13 1008.2 - 0.0 - Partly cloudy 10 - - - -
04/08:00am 24.4 SW 6 8 1007.9 - 0.0 - - 10 - - - -
04/07:30am 22.7 SW 6 7 1007.6 - 0.0 - - 10 - - - -
04/07:00am 21.9 SW 4 5 1007.2 - 0.0 - - 10 - - - -
04/06:30am 21.6 SW 5 6 1006.9 - 0.0 - - 10 - - - -
04/06:00am 21.3 SW 4 5 1006.5 - 0.0 - Mostly clear 10 - - - -
04/05:30am 21.5 SW 5 6 1006.1 - 0.0 - Partly cloudy 10 - - - -
04/05:00am 21.4 SW 4 5 1005.8 - 0.0 - Partly cloudy 10 - - - -
04/04:30am 21.5 SW 5 5 1005.5 - 0.0 - - 10 - - - -
04/04:00am 21.5 SW 5 5 1005.4 - 0.0 - - 10 - - - -
04/03:30am 21.7 WSW 3 5 1005.3 - 0.0 - Partly cloudy 10 - - - -
04/03:00am 21.3 SW 3 3 1005.4 - 0.0 - Partly cloudy 10 - - - -
04/02:30am 21.3 CALM 0 4 1005.5 - 0.0 - Partly cloudy 10 - - - -
04/02:00am 21.4 CALM 0 3 1005.4 - 0.0 - - 10 - - - -
04/01:30am 21.8 ESE 2 4 1005.3 - 0.0 - - 10 - - - -
04/01:00am 21.9 CALM 0 0 1005.6 - 0.0 - - 10 - - - -
04/12:30am 23.0 CALM 0 0 1005.7 - 0.0 - Partly cloudy 10 - - - -
04/12:00am 23.6 ESE 1 3 1005.8 - 0.0 - Partly cloudy 10 - - - -
 
Date/Time
EDT
Temp

°C
Wind Pressure Rain
since 9am
mm
Weather Cloud Vis
km
Sea
Height
m
Swell
Dir
 
Speed
knots
Gust
knots
hPa Trend Height
m
Period
s
Dir
03/11:30pm 24.4 E 4 5 1005.9 - 0.0 - Partly cloudy 10 - - - -
03/11:00pm 25.0 ENE 3 5 1005.8 - 0.0 - Partly cloudy 10 - - - -
03/10:30pm 25.2 NE 4 5 1005.6 - 0.0 - Partly cloudy 10 - - - -
03/10:00pm 24.9 ENE 4 6 1005.4 - 0.0 - Partly cloudy 10 - - - -
03/09:30pm 25.1 NE 4 6 1005.0 - 0.0 - - 10 - - - -
03/09:00pm 25.4 NE 4 6 1004.8 - 0.0 - Cloudy 10 - - - -
03/08:30pm 25.6 NE 5 7 1004.4 - 0.0 - Partly cloudy 10 - - - -

Other Formats:

Comma delimited format used in spreadsheet applications
http://www.bom.gov.au/fwo/IDN60701/IDN60701.94786.axf

JavaScript Object Notation format (JSON) in row-major order
http://www.bom.gov.au/fwo/IDN60701/IDN60701.94786.json